Etusivu
Satelliittikuvat 15 päivän ennusteetIlmastoMerisää Syklonit Salamointi LentoasematUKK Uutiskirje Muuta
Sää : Eurooppa Afrikka Pohjois-Amerikka Etelä-Amerikka Aasia Australia-Oseania Muut
Kielet Yhteydenotto

Kittilä, Suomi

Leveyspiiri: 67-42N, Pituuspiiri: 024-51E, korkeus merenpinnasta: 196 m


METAR: EFKT 281250Z 21003KT 7000 OVC003 M04/M05 Q1024 R34/72//95
TAF: EFKT 281127Z 2812/2818 22004KT 8000 -SN OVC006 TEMPO 2812/2818 2500 BR OVC002

Aika: 15:09 (13:09 UTC)

Tämänhetkinen sää

Tämä raportti tehtiin 19 minuuttia sitten, kello 12.50 UTC
Tuuli 3 kn etelästä/lounaasta
Lämpötila -4°C
Kosteus 93%
Ilmanpaine 1024 hPa
Näkyvyys: 7000 m
Pilvistä 300 ft:n korkeudessa

Muuta yksikköjä

Sääennuste

Tämä raportti tehtiin 1 tunti ja 42 minuuttia sitten, kello 11.27 UTC
Ennuste voimassa 28. päivästä klo 12 UTC - 28. päivään klo 18 UTC
Tuuli 4 kn lounaasta
Näkyvyys: 8000 m
Pilvistä 600 ft:n korkeudessa
heikkoa lumisadetta
Ajoittain
28. päivästä klo 12 UTC - 28. päivään klo 18 UTC
Näkyvyys: 2500 m
Pilvistä 200 ft:n korkeudessa
utua
Tällä sivustolla oleviin tietoihin sovelletaan vastuuvapauslauseketta
Sää : Eurooppa Afrikka Pohjois-Amerikka Etelä-Amerikka Aasia Australia-Oseania Muut
Satelliittikuvat 15 päivän ennusteetIlmastoMerisää Syklonit Salamointi LentoasematUKK Kielet Yhteydenotto Uutiskirje Muuta